X  Schließen METAR Luftfahrt Wetterdaten     EDVE Braunschweig-Wolfsburg Airport
Temperatur
22°C Temperatur
11°C Taupunkt
50% Feuchtigkeit



Wind
16 KM/S
10 MPS
4 M/S
9 KTS



250°
WSW
Aktuelle Wetterlage

Meistens bewölkt Meistens bewölkt
Luftdruck 1008.92 (hPa) - 29.79 (inHg)
Sichtweite 6.2 (Meile) - 10 (Km)
Flughafen
Flughafen Code EDVE

Position : Braunschweig-Wolfsburg Airport
Entfernung: 35 (Km)

Metar:
EDVE 301050Z 25009KT 200V290 9999 BKN048 22/11 Q1009

Zeit: 30-07-2021 12:50 CEST